createdAt,value
2023-03-22T00:01:23.727Z,98272.13
2023-03-22T00:03:52.546Z,98268.61
2023-03-22T00:06:20.322Z,98268.19
2023-03-22T00:08:51.608Z,98264.06
2023-03-22T00:11:20.658Z,98268.61
2023-03-22T00:13:48.407Z,98265.02
2023-03-22T00:16:16.104Z,98261.61
2023-03-22T00:18:43.778Z,98256.96
2023-03-22T00:21:13.414Z,98257.86
2023-03-22T00:23:41.131Z,98257.94
2023-03-22T00:26:09.819Z,98257.26
2023-03-22T00:28:37.673Z,98259.48
2023-03-22T00:31:05.610Z,98251.11
2023-03-22T00:33:33.273Z,98254.15
2023-03-22T00:36:08.014Z,98247.44
2023-03-22T00:38:43.791Z,98251.15
2023-03-22T00:41:20.033Z,98254.50
2023-03-22T00:43:47.673Z,98248.48
2023-03-22T00:46:16.165Z,98248.27
2023-03-22T00:48:43.941Z,98244.46
2023-03-22T00:51:11.799Z,98247.82
2023-03-22T00:53:42.898Z,98238.09
2023-03-22T00:56:15.598Z,98241.70
2023-03-22T00:58:43.770Z,98240.96
2023-03-22T01:01:14.601Z,98235.48
2023-03-22T01:03:43.104Z,98226.15
2023-03-22T01:06:11.049Z,98225.85
2023-03-22T01:08:39.444Z,98222.09
2023-03-22T01:11:07.627Z,98221.76
2023-03-22T01:13:37.558Z,98226.16
2023-03-22T01:16:06.416Z,98227.60
2023-03-22T01:18:34.602Z,98225.23
2023-03-22T01:21:02.223Z,98226.45
2023-03-22T01:23:29.914Z,98225.15
2023-03-22T01:25:57.566Z,98222.12
2023-03-22T01:28:27.064Z,98223.39
2023-03-22T01:30:55.506Z,98219.74
2023-03-22T01:33:23.248Z,98218.05
2023-03-22T01:35:51.628Z,98213.62
2023-03-22T01:38:19.648Z,98205.38
2023-03-22T01:40:47.217Z,98201.09
2023-03-22T01:43:15.691Z,98195.95
2023-03-22T01:45:45.860Z,98191.80
2023-03-22T01:48:18.517Z,98191.09
2023-03-22T01:50:56.074Z,98189.86
2023-03-22T01:53:25.379Z,98189.70
2023-03-22T01:55:53.626Z,98187.81
2023-03-22T01:58:21.283Z,98190.38
2023-03-22T02:00:49.143Z,98188.27
2023-03-22T02:03:18.068Z,98189.11
2023-03-22T02:05:46.120Z,98182.80
2023-03-22T02:08:15.093Z,98175.77
2023-03-22T02:10:43.119Z,98174.95
2023-03-22T02:13:22.964Z,98176.23
2023-03-22T02:16:19.695Z,98173.89
2023-03-22T02:19:30.642Z,98173.02
2023-03-22T02:22:04.334Z,98172.05
2023-03-22T02:24:51.644Z,98170.54
2023-03-22T02:27:52.946Z,98163.56
2023-03-22T02:30:56.405Z,98160.87
2023-03-22T02:33:46.508Z,98160.46
2023-03-22T02:36:33.189Z,98157.11
2023-03-22T02:39:31.877Z,98156.55
2023-03-22T02:42:21.250Z,98157.11
2023-03-22T02:45:09.633Z,98157.60
2023-03-22T02:47:41.699Z,98155.96
2023-03-22T02:50:29.389Z,98150.09
2023-03-22T02:53:06.004Z,98143.48
2023-03-22T02:55:37.995Z,98142.41
2023-03-22T02:58:19.813Z,98145.79
2023-03-22T03:00:49.488Z,98145.02
2023-03-22T03:03:18.476Z,98147.12
2023-03-22T03:05:49.100Z,98146.58
2023-03-22T03:08:19.791Z,98147.60
2023-03-22T03:10:47.416Z,98147.05
2023-03-22T03:13:16.215Z,98148.02
2023-03-22T03:15:45.287Z,98148.05
2023-03-22T03:18:35.740Z,98152.05
2023-03-22T03:21:25.711Z,98151.52
2023-03-22T03:24:23.479Z,98156.84
2023-03-22T03:27:20.390Z,98154.77
2023-03-22T03:29:51.367Z,98155.27
2023-03-22T03:32:25.663Z,98160.03
2023-03-22T03:34:57.548Z,98158.22
2023-03-22T03:37:52.935Z,98151.66
2023-03-22T03:40:34.070Z,98148.69
2023-03-22T03:43:04.903Z,98141.13
2023-03-22T03:45:33.175Z,98140.71
2023-03-22T03:48:02.827Z,98133.55
2023-03-22T03:50:30.840Z,98133.83
2023-03-22T03:52:59.101Z,98141.98
2023-03-22T03:55:26.669Z,98146.14
2023-03-22T03:57:54.266Z,98147.63
2023-03-22T04:00:22.077Z,98155.39
2023-03-22T04:02:49.635Z,98155.05
2023-03-22T04:05:17.373Z,98154.11
2023-03-22T04:07:44.972Z,98150.94
2023-03-22T04:10:12.550Z,98153.80
2023-03-22T04:12:40.228Z,98154.03
2023-03-22T04:15:08.507Z,98153.88
2023-03-22T04:17:36.156Z,98153.52
2023-03-22T04:20:06.021Z,98156.73
2023-03-22T04:22:38.426Z,98156.74
2023-03-22T04:25:15.024Z,98152.48
2023-03-22T04:27:42.659Z,98150.81
2023-03-22T04:30:12.635Z,98147.05
2023-03-22T04:32:40.230Z,98148.44
2023-03-22T04:35:08.406Z,98153.27
2023-03-22T04:37:36.573Z,98151.33
2023-03-22T04:40:08.516Z,98148.01
2023-03-22T04:42:36.551Z,98144.40
2023-03-22T04:45:04.762Z,98146.17
2023-03-22T04:47:32.306Z,98148.20
2023-03-22T04:49:59.930Z,98148.59
2023-03-22T04:52:27.494Z,98147.75
2023-03-22T04:54:55.314Z,98148.04
2023-03-22T04:57:22.903Z,98147.50
2023-03-22T04:59:50.844Z,98146.69
2023-03-22T05:02:18.393Z,98145.92
2023-03-22T05:04:46.190Z,98151.93
2023-03-22T05:07:13.952Z,98148.90
2023-03-22T05:09:41.652Z,98147.89
2023-03-22T05:12:09.254Z,98144.83
2023-03-22T05:14:36.888Z,98146.94
2023-03-22T05:17:04.605Z,98146.64
2023-03-22T05:19:33.180Z,98147.10
2023-03-22T05:22:02.029Z,98149.64
2023-03-22T05:24:30.460Z,98151.84
2023-03-22T05:27:01.171Z,98152.55
2023-03-22T05:29:29.159Z,98153.05
2023-03-22T05:31:56.724Z,98155.10
2023-03-22T05:34:24.429Z,98148.69
2023-03-22T05:36:52.086Z,98148.91
2023-03-22T05:39:20.529Z,98146.36
2023-03-22T05:41:48.379Z,98149.58
2023-03-22T05:44:16.180Z,98146.64
2023-03-22T05:46:43.773Z,98147.85
2023-03-22T05:49:12.247Z,98142.64
2023-03-22T05:51:42.118Z,98147.59
2023-03-22T05:54:09.831Z,98150.31
2023-03-22T05:56:37.522Z,98146.61
2023-03-22T05:59:05.212Z,98148.09
2023-03-22T06:01:33.536Z,98145.70
2023-03-22T06:04:01.546Z,98147.31
2023-03-22T06:06:29.249Z,98146.86
2023-03-22T06:09:07.263Z,98147.49
2023-03-22T06:11:41.951Z,98151.55
2023-03-22T06:14:09.629Z,98151.21
2023-03-22T06:16:37.341Z,98149.98
2023-03-22T06:19:05.024Z,98152.24
2023-03-22T06:21:32.688Z,98151.39
2023-03-22T06:24:00.580Z,98153.11
2023-03-22T06:26:28.337Z,98152.46
2023-03-22T06:28:56.393Z,98150.10
2023-03-22T06:31:23.983Z,98151.05
2023-03-22T06:33:52.647Z,98153.52
2023-03-22T06:36:21.700Z,98156.52
2023-03-22T06:38:49.264Z,98153.94
2023-03-22T06:41:16.934Z,98156.20
2023-03-22T06:43:44.530Z,98160.73
2023-03-22T06:46:12.207Z,98162.52
2023-03-22T06:48:39.974Z,98162.97
2023-03-22T06:51:07.755Z,98159.47
2023-03-22T06:53:35.893Z,98159.48
2023-03-22T06:56:03.762Z,98160.52
2023-03-22T06:58:31.526Z,98161.15
2023-03-22T07:00:59.345Z,98163.68
2023-03-22T07:03:27.258Z,98169.34
2023-03-22T07:06:04.479Z,98169.27
2023-03-22T07:08:32.271Z,98175.62
2023-03-22T07:10:59.892Z,98178.84
2023-03-22T07:13:27.702Z,98175.85
2023-03-22T07:15:59.535Z,98171.50
2023-03-22T07:18:27.663Z,98169.48
2023-03-22T07:20:55.520Z,98169.11
2023-03-22T07:23:23.208Z,98172.01
2023-03-22T07:25:52.084Z,98167.40
2023-03-22T07:28:19.804Z,98160.85
2023-03-22T07:30:47.395Z,98164.59
2023-03-22T07:33:15.469Z,98161.17
2023-03-22T07:35:43.144Z,98161.63
2023-03-22T07:38:11.496Z,98159.14
2023-03-22T07:40:39.593Z,98162.05
2023-03-22T07:43:07.669Z,98163.19
2023-03-22T07:45:35.783Z,98163.80
2023-03-22T07:48:03.816Z,98165.61
2023-03-22T07:50:31.587Z,98159.23
2023-03-22T07:52:59.552Z,98160.87
2023-03-22T07:55:27.116Z,98152.95
2023-03-22T07:57:55.066Z,98141.54
2023-03-22T08:00:23.465Z,98140.89
2023-03-22T08:02:51.274Z,98138.83
2023-03-22T08:05:18.927Z,98141.28
2023-03-22T08:07:47.266Z,98140.95
2023-03-22T08:10:14.864Z,98149.73
2023-03-22T08:12:42.459Z,98155.57
2023-03-22T08:15:10.562Z,98149.86
2023-03-22T08:17:38.273Z,98144.66
2023-03-22T08:20:09.758Z,98143.33
2023-03-22T08:22:38.324Z,98139.34
2023-03-22T08:25:07.212Z,98141.83
2023-03-22T08:27:34.802Z,98130.36
2023-03-22T08:30:02.782Z,98129.88
2023-03-22T08:32:30.505Z,98126.27
2023-03-22T08:34:58.075Z,98124.39
2023-03-22T08:37:25.761Z,98120.40
2023-03-22T08:39:53.357Z,98118.35
2023-03-22T08:42:21.344Z,98121.89
2023-03-22T08:44:49.453Z,98124.56
2023-03-22T08:47:17.043Z,98117.94
2023-03-22T08:49:45.104Z,98119.70
2023-03-22T08:52:12.822Z,98128.13
2023-03-22T08:54:40.431Z,98124.12
2023-03-22T08:57:09.509Z,98120.13
2023-03-22T08:59:37.293Z,98120.47
2023-03-22T09:02:05.846Z,98120.80
2023-03-22T09:04:33.630Z,98120.44
2023-03-22T09:07:01.638Z,98117.60
2023-03-22T09:09:29.238Z,98109.01
2023-03-22T09:11:58.150Z,98106.88
2023-03-22T09:14:25.847Z,98101.59
2023-03-22T09:16:53.518Z,98097.34
2023-03-22T09:19:21.151Z,98097.11
2023-03-22T09:21:50.248Z,98097.07
2023-03-22T09:24:18.405Z,98098.92
2023-03-22T09:26:46.865Z,98096.61
2023-03-22T09:29:14.521Z,98099.73
2023-03-22T09:31:42.311Z,98099.52
2023-03-22T09:34:09.935Z,98102.63
2023-03-22T09:36:37.706Z,98102.39
2023-03-22T09:39:07.231Z,98099.35
2023-03-22T09:41:38.541Z,98093.16
2023-03-22T09:44:18.505Z,98088.14
2023-03-22T09:46:48.630Z,98085.90
2023-03-22T09:49:18.326Z,98076.30
2023-03-22T09:51:50.677Z,98076.16
2023-03-22T09:54:33.703Z,98070.59
2023-03-22T09:57:05.804Z,98065.71
2023-03-22T09:59:50.584Z,98064.18
2023-03-22T10:02:24.509Z,98056.10
2023-03-22T10:05:18.479Z,98056.95
2023-03-22T10:07:46.256Z,98053.00
2023-03-22T10:10:21.060Z,98055.27
2023-03-22T10:12:54.172Z,98056.67
2023-03-22T10:15:37.091Z,98063.34
2023-03-22T10:18:07.210Z,98057.34
2023-03-22T10:20:40.570Z,98052.84
2023-03-22T10:23:12.637Z,98049.89
2023-03-22T10:25:41.189Z,98048.14
2023-03-22T10:28:22.152Z,98046.88
2023-03-22T10:30:56.930Z,98051.73
2023-03-22T10:33:39.079Z,98051.84
2023-03-22T10:36:10.692Z,98044.67
2023-03-22T10:38:44.111Z,98040.77
2023-03-22T10:41:12.545Z,98037.05
2023-03-22T10:43:40.550Z,98037.13
2023-03-22T10:46:13.679Z,98036.02
2023-03-22T10:48:43.795Z,98043.33
2023-03-22T10:51:16.430Z,98041.92
2023-03-22T10:53:46.765Z,98035.31
2023-03-22T10:56:16.054Z,98037.89
2023-03-22T10:58:43.852Z,98039.42
2023-03-22T11:01:13.433Z,98040.08
2023-03-22T11:03:42.990Z,98039.45
2023-03-22T11:06:23.732Z,98037.13
2023-03-22T11:08:53.431Z,98030.05
2023-03-22T11:11:32.482Z,98022.05
2023-03-22T11:14:16.875Z,98017.75
2023-03-22T11:16:55.910Z,98016.36
2023-03-22T11:19:35.453Z,98010.60
2023-03-22T11:22:05.098Z,98001.70
2023-03-22T11:24:33.290Z,98004.23
2023-03-22T11:27:08.656Z,97997.58
2023-03-22T11:29:42.315Z,97995.98
2023-03-22T11:32:38.791Z,97995.41
2023-03-22T11:35:17.863Z,97989.27
2023-03-22T11:37:47.719Z,97986.89
2023-03-22T11:40:32.500Z,97985.04
2023-03-22T11:43:18.061Z,97988.48
2023-03-22T11:45:46.176Z,97985.92
2023-03-22T11:48:19.316Z,97983.54
2023-03-22T11:50:47.382Z,97982.64
2023-03-22T11:53:20.601Z,97985.33
2023-03-22T11:55:49.074Z,97983.38
2023-03-22T11:58:39.186Z,97977.33
2023-03-22T12:01:07.212Z,97972.46
2023-03-22T12:03:39.046Z,97962.40
2023-03-22T12:06:21.767Z,97958.23
2023-03-22T12:08:58.634Z,97950.70
2023-03-22T12:11:41.871Z,97954.43
2023-03-22T12:14:21.990Z,97950.84
2023-03-22T12:16:51.018Z,97951.71
2023-03-22T12:19:46.570Z,97947.92
2023-03-22T12:22:17.018Z,97941.40
2023-03-22T12:24:44.615Z,97947.20
2023-03-22T12:27:21.528Z,97940.13
2023-03-22T12:29:53.852Z,97936.66
2023-03-22T12:32:24.784Z,97936.43
2023-03-22T12:34:55.005Z,97929.75
2023-03-22T12:37:32.283Z,97924.28
2023-03-22T12:40:27.249Z,97922.21
2023-03-22T12:43:02.047Z,97928.84
2023-03-22T12:45:31.596Z,97927.37
2023-03-22T12:48:14.484Z,97928.29
2023-03-22T12:50:44.814Z,97919.10
2023-03-22T12:53:14.543Z,97916.14
2023-03-22T12:55:42.389Z,97920.92
2023-03-22T12:58:10.562Z,97919.88
2023-03-22T13:00:47.958Z,97916.71
2023-03-22T13:03:16.279Z,97918.22
2023-03-22T13:05:45.007Z,97910.55
2023-03-22T13:08:14.479Z,97912.50
2023-03-22T13:10:58.516Z,97903.52
2023-03-22T13:13:27.892Z,97903.95
2023-03-22T13:16:02.811Z,97903.50
2023-03-22T13:18:36.529Z,97898.41
2023-03-22T13:21:21.271Z,97897.96
2023-03-22T13:24:02.357Z,97892.71
2023-03-22T13:26:32.670Z,97896.33
2023-03-22T13:29:02.097Z,97892.69
2023-03-22T13:31:52.305Z,97894.43
2023-03-22T13:34:21.985Z,97889.48
2023-03-22T13:36:51.751Z,97887.44
2023-03-22T13:39:21.400Z,97890.80
2023-03-22T13:41:49.987Z,97886.30
2023-03-22T13:44:26.507Z,97892.96
2023-03-22T13:46:57.240Z,97897.74
2023-03-22T13:49:48.184Z,97890.17
2023-03-22T13:52:25.532Z,97886.69
2023-03-22T13:54:54.208Z,97882.46
2023-03-22T13:58:01.868Z,97880.08
2023-03-22T14:00:29.491Z,97877.25
2023-03-22T14:03:18.233Z,97874.52
2023-03-22T14:05:47.762Z,97870.68
2023-03-22T14:08:22.099Z,97875.58
2023-03-22T14:11:02.772Z,97870.08
2023-03-22T14:13:32.153Z,97870.63
2023-03-22T14:16:08.601Z,97869.50
2023-03-22T14:18:37.212Z,97865.58
2023-03-22T14:21:13.105Z,97865.31
